Startpagina
METAR-TAF:

METAR-TAF

Vliegvelden :

Internationale luchthaven van Nouakchott

Nouakchott, Mauritanië

breedte: 18-18-36N, lengte: 015-58-11W, hoogte: 3 m

Actueel weer

Dit bericht is 26 minuten geleden gemaakt, om 05:00 UTC
Wind 10 kt uit het noordnoordwesten
Temperatuur 20°C
Vochtigheid 68%
Druk 1010 hPa
Zicht: 8000 m

METAR: GQNO 210500Z 34010KT 8000 NSC 20/14 Q1010 NOSIG

Tijdstip: 05:26 (05:26 UTC)

Verwachting

Dit bericht is 6 uur en het 26 minuten geleden gemaakt, om 23:00 UTC
Verwachting geldig van 21 om 00 UTC tot 22 om 06 UTC
Wind 14 kt uit het noordnoordwesten
Zicht: 8000 m

TAF: GQNO 202300Z 2100/2206 33014KT 8000 NSC

Waarnemingen en weersverwachtingen van meer dan 4000 vliegvelden (METAR en TAF).

De beschikbare stations zijn de gele en rode punten op de kaart.

Ga met uw muis naar het station om de naam te zien.

Klik dan om waarnemingen en weersverwachtingen te zien.

kaart wijzigen: klik op de groene knoppen met een zwart kruis om in te zoomen, op de groene knop met een streepje om uit te zoomen of op de groene pijlen voor aangrenzende kaarten.


METAR-TAF: